createdAt,value
2023-03-16T00:00:01.958Z,78.78
2023-03-16T00:02:52.560Z,78.98
2023-03-16T00:05:40.880Z,78.45
2023-03-16T00:08:29.213Z,78.24
2023-03-16T00:11:17.725Z,78.60
2023-03-16T00:14:07.581Z,78.65
2023-03-16T00:16:55.945Z,78.12
2023-03-16T00:19:46.832Z,77.93
2023-03-16T00:22:35.315Z,77.23
2023-03-16T00:25:24.409Z,77.38
2023-03-16T00:28:14.053Z,78.15
2023-03-16T00:31:04.533Z,78.67
2023-03-16T00:33:52.887Z,78.92
2023-03-16T00:36:42.589Z,79.52
2023-03-16T00:39:35.578Z,79.34
2023-03-16T00:42:27.442Z,79.52
2023-03-16T00:45:15.937Z,79.99
2023-03-16T00:48:05.718Z,79.24
2023-03-16T00:50:54.454Z,79.33
2023-03-16T00:53:44.511Z,77.93
2023-03-16T00:56:32.958Z,78.81
2023-03-16T00:59:21.794Z,78.77
2023-03-16T01:02:10.953Z,79.16
2023-03-16T01:05:01.968Z,79.40
2023-03-16T01:07:50.331Z,79.83
2023-03-16T01:10:40.500Z,80.52
2023-03-16T01:13:28.901Z,80.41
2023-03-16T01:16:18.955Z,80.75
2023-03-16T01:19:07.459Z,80.78
2023-03-16T01:21:57.297Z,81.08
2023-03-16T01:24:46.779Z,81.21
2023-03-16T01:27:35.180Z,81.54
2023-03-16T01:30:23.541Z,81.31
2023-03-16T01:33:12.120Z,81.33
2023-03-16T01:36:03.037Z,80.71
2023-03-16T01:39:00.259Z,80.19
2023-03-16T01:41:53.372Z,80.57
2023-03-16T01:44:52.774Z,80.28
2023-03-16T01:47:42.649Z,80.43
2023-03-16T01:50:34.771Z,79.21
2023-03-16T01:53:24.204Z,79.11
2023-03-16T01:56:16.835Z,79.66
2023-03-16T01:59:10.501Z,79.24
2023-03-16T02:01:59.703Z,80.48
2023-03-16T02:04:52.131Z,81.24
2023-03-16T02:07:44.904Z,80.66
2023-03-16T02:10:34.557Z,80.23
2023-03-16T02:13:25.049Z,80.68
2023-03-16T02:16:19.386Z,80.89
2023-03-16T02:19:11.013Z,80.92
2023-03-16T02:22:04.055Z,80.73
2023-03-16T02:24:53.564Z,80.57
2023-03-16T02:27:47.317Z,83.21
2023-03-16T02:30:37.635Z,84.94
2023-03-16T02:33:27.334Z,83.82
2023-03-16T02:36:18.209Z,83.01
2023-03-16T02:39:08.154Z,82.95
2023-03-16T02:42:06.049Z,82.92
2023-03-16T02:44:57.133Z,83.38
2023-03-16T02:47:53.476Z,82.81
2023-03-16T02:50:49.399Z,82.83
2023-03-16T02:53:37.938Z,83.14
2023-03-16T02:56:26.427Z,82.52
2023-03-16T02:59:14.842Z,82.10
2023-03-16T03:02:03.494Z,82.39
2023-03-16T03:04:54.629Z,82.24
2023-03-16T03:07:44.672Z,82.53
2023-03-16T03:10:34.810Z,82.90
2023-03-16T03:13:24.134Z,82.66
2023-03-16T03:16:13.041Z,82.88
2023-03-16T03:19:01.528Z,83.33
2023-03-16T03:21:56.992Z,83.24
2023-03-16T03:24:45.813Z,82.69
2023-03-16T03:27:34.257Z,82.92
2023-03-16T03:30:26.517Z,82.17
2023-03-16T03:33:15.032Z,81.88
2023-03-16T03:36:03.556Z,81.67
2023-03-16T03:38:57.856Z,81.73
2023-03-16T03:41:46.343Z,81.43
2023-03-16T03:44:35.627Z,81.45
2023-03-16T03:47:24.010Z,81.50
2023-03-16T03:50:14.115Z,81.13
2023-03-16T03:53:18.801Z,81.65
2023-03-16T03:56:28.477Z,81.59
2023-03-16T03:59:16.907Z,81.49
2023-03-16T04:02:38.265Z,82.42
2023-03-16T04:05:28.645Z,83.11
2023-03-16T04:08:17.050Z,84.27
2023-03-16T04:11:06.627Z,84.71
2023-03-16T04:13:56.738Z,84.44
2023-03-16T04:16:45.335Z,85.39
2023-03-16T04:19:35.193Z,85.37
2023-03-16T04:22:25.202Z,85.73
2023-03-16T04:25:14.894Z,86.55
2023-03-16T04:28:04.480Z,86.98
2023-03-16T04:30:56.863Z,87.66
2023-03-16T04:33:54.898Z,87.64
2023-03-16T04:36:44.552Z,86.71
2023-03-16T04:39:33.005Z,86.26
2023-03-16T04:42:21.959Z,85.58
2023-03-16T04:45:11.139Z,85.51
2023-03-16T04:48:01.494Z,84.98
2023-03-16T04:50:51.433Z,84.45
2023-03-16T04:53:39.968Z,84.55
2023-03-16T04:56:36.281Z,84.54
2023-03-16T04:59:29.910Z,83.66
2023-03-16T05:02:37.027Z,83.65
2023-03-16T05:05:28.187Z,83.58
2023-03-16T05:08:16.625Z,84.13
2023-03-16T05:11:08.113Z,83.95
2023-03-16T05:14:02.132Z,83.81
2023-03-16T05:16:52.654Z,83.90
2023-03-16T05:19:42.330Z,84.20
2023-03-16T05:22:33.005Z,84.23
2023-03-16T05:25:46.122Z,84.37
2023-03-16T05:28:36.844Z,84.17
2023-03-16T05:31:32.835Z,84.24
2023-03-16T05:34:24.122Z,84.00
2023-03-16T05:37:13.462Z,84.06
2023-03-16T05:40:11.962Z,84.14
2023-03-16T05:43:01.070Z,83.89
2023-03-16T05:45:52.078Z,84.05
2023-03-16T05:48:41.614Z,83.77
2023-03-16T05:51:33.552Z,84.00
2023-03-16T05:54:24.267Z,83.62
2023-03-16T05:57:14.149Z,83.93
2023-03-16T06:00:12.355Z,84.34
2023-03-16T06:03:01.592Z,84.02
2023-03-16T06:05:54.682Z,83.09
2023-03-16T06:08:51.635Z,83.63
2023-03-16T06:11:42.051Z,83.33
2023-03-16T06:14:31.727Z,83.55
2023-03-16T06:17:21.571Z,84.29
2023-03-16T06:20:13.132Z,84.14
2023-03-16T06:23:04.424Z,84.31
2023-03-16T06:25:55.174Z,84.71
2023-03-16T06:28:46.642Z,84.37
2023-03-16T06:31:36.623Z,84.63
2023-03-16T06:34:25.241Z,84.56
2023-03-16T06:37:13.656Z,85.28
2023-03-16T06:40:02.400Z,85.62
2023-03-16T06:42:51.443Z,85.50
2023-03-16T06:45:40.032Z,85.03
2023-03-16T06:48:30.363Z,85.75
2023-03-16T06:51:19.243Z,85.61
2023-03-16T06:54:08.908Z,85.71
2023-03-16T06:57:01.468Z,85.99
2023-03-16T06:59:49.785Z,85.47
2023-03-16T07:02:40.441Z,86.23
2023-03-16T07:05:31.518Z,86.48
2023-03-16T07:08:21.065Z,86.64
2023-03-16T07:11:09.479Z,86.69
2023-03-16T07:13:58.693Z,86.52
2023-03-16T07:16:48.290Z,86.48
2023-03-16T07:19:38.264Z,86.58
2023-03-16T07:22:27.996Z,86.58
2023-03-16T07:25:16.377Z,86.81
2023-03-16T07:28:11.680Z,87.11
2023-03-16T07:31:04.432Z,87.81
2023-03-16T07:34:00.131Z,87.78
2023-03-16T07:36:57.360Z,88.35
2023-03-16T07:39:49.756Z,88.05
2023-03-16T07:42:41.115Z,88.21
2023-03-16T07:45:31.588Z,88.40
2023-03-16T07:48:20.908Z,88.09
2023-03-16T07:51:16.534Z,87.82
2023-03-16T07:54:08.629Z,88.85
2023-03-16T07:56:59.158Z,88.46
2023-03-16T08:00:09.031Z,88.03
2023-03-16T08:03:06.305Z,88.72
2023-03-16T08:05:55.113Z,88.67
2023-03-16T08:08:43.948Z,88.13
2023-03-16T08:11:39.216Z,87.92
2023-03-16T08:14:29.034Z,87.60
2023-03-16T08:17:32.185Z,87.21
2023-03-16T08:20:22.635Z,86.90
2023-03-16T08:23:11.757Z,86.44
2023-03-16T08:26:03.080Z,86.23
2023-03-16T08:28:52.914Z,85.75
2023-03-16T08:31:42.964Z,85.10
2023-03-16T08:34:40.868Z,84.02
2023-03-16T08:37:30.395Z,83.84
2023-03-16T08:40:21.120Z,83.16
2023-03-16T08:43:09.721Z,82.31
2023-03-16T08:45:59.097Z,82.37
2023-03-16T08:48:56.877Z,82.79
2023-03-16T08:51:46.839Z,82.16
2023-03-16T08:54:35.250Z,81.56
2023-03-16T08:57:23.706Z,80.55
2023-03-16T09:00:14.890Z,80.97
2023-03-16T09:03:03.588Z,79.69
2023-03-16T09:05:53.251Z,79.67
2023-03-16T09:08:41.898Z,79.12
2023-03-16T09:11:33.611Z,80.06
2023-03-16T09:14:21.971Z,79.82
2023-03-16T09:17:11.745Z,77.88
2023-03-16T09:20:15.111Z,78.79
2023-03-16T09:23:09.195Z,77.39
2023-03-16T09:25:59.370Z,78.83
2023-03-16T09:28:48.112Z,77.91
2023-03-16T09:31:37.633Z,77.65
2023-03-16T09:34:26.200Z,77.07
2023-03-16T09:37:15.501Z,77.10
2023-03-16T09:40:10.318Z,75.79
2023-03-16T09:43:12.172Z,74.35
2023-03-16T09:46:05.537Z,75.17
2023-03-16T09:48:55.774Z,76.76
2023-03-16T09:51:47.087Z,76.73
2023-03-16T09:54:39.624Z,77.45
2023-03-16T09:57:32.394Z,74.60
2023-03-16T10:00:23.090Z,75.73
2023-03-16T10:03:18.684Z,76.59
2023-03-16T10:06:11.153Z,76.96
2023-03-16T10:09:06.988Z,75.29
2023-03-16T10:11:56.863Z,74.88
2023-03-16T10:14:50.183Z,73.59
2023-03-16T10:17:40.318Z,74.93
2023-03-16T10:20:33.101Z,75.14
2023-03-16T10:23:24.326Z,73.30
2023-03-16T10:26:16.730Z,73.54
2023-03-16T10:29:07.532Z,71.51
2023-03-16T10:32:01.522Z,72.51
2023-03-16T10:34:55.231Z,72.49
2023-03-16T10:37:43.634Z,72.52
2023-03-16T10:40:32.994Z,72.45
2023-03-16T10:43:21.329Z,71.29
2023-03-16T10:46:14.714Z,70.45
2023-03-16T10:49:04.589Z,67.95
2023-03-16T10:51:54.836Z,68.69
2023-03-16T10:54:49.679Z,65.21
2023-03-16T10:57:39.122Z,66.36
2023-03-16T11:00:29.987Z,63.99
2023-03-16T11:03:23.946Z,66.18
2023-03-16T11:06:22.897Z,62.95
2023-03-16T11:09:16.513Z,63.06
2023-03-16T11:12:15.568Z,65.37
2023-03-16T11:15:07.464Z,65.66
2023-03-16T11:17:57.666Z,65.95
2023-03-16T11:20:46.015Z,65.92
2023-03-16T11:23:38.637Z,64.07
2023-03-16T11:26:32.320Z,63.44
2023-03-16T11:29:24.883Z,61.08
2023-03-16T11:32:15.667Z,59.49
2023-03-16T11:35:08.834Z,59.86
2023-03-16T11:38:07.197Z,57.47
2023-03-16T11:41:00.263Z,62.09
2023-03-16T11:43:52.055Z,61.01
2023-03-16T11:46:43.130Z,60.13
2023-03-16T11:49:42.949Z,59.99
2023-03-16T11:52:39.638Z,60.96
2023-03-16T11:55:39.174Z,61.18
2023-03-16T11:58:41.149Z,60.20
2023-03-16T12:01:43.064Z,60.84
2023-03-16T12:04:45.104Z,59.72
2023-03-16T12:07:44.053Z,60.18
2023-03-16T12:10:36.272Z,58.04
2023-03-16T12:13:33.737Z,58.02
2023-03-16T12:16:33.212Z,57.00
2023-03-16T12:19:33.634Z,55.21
2023-03-16T12:22:25.336Z,54.90
2023-03-16T12:25:17.271Z,54.43
2023-03-16T12:28:11.657Z,57.60
2023-03-16T12:31:10.020Z,55.66
2023-03-16T12:34:13.440Z,56.70
2023-03-16T12:37:08.145Z,53.70
2023-03-16T12:40:09.034Z,52.96
2023-03-16T12:43:23.910Z,52.26
2023-03-16T12:46:14.431Z,53.93
2023-03-16T12:49:06.752Z,54.88
2023-03-16T12:52:02.905Z,54.25
2023-03-16T12:54:52.941Z,53.18
2023-03-16T12:57:41.473Z,53.95
2023-03-16T13:00:37.672Z,53.20
2023-03-16T13:03:26.541Z,50.38
2023-03-16T13:06:24.900Z,53.59
2023-03-16T13:09:15.218Z,53.33
2023-03-16T13:12:05.464Z,54.19
2023-03-16T13:14:54.914Z,54.04
2023-03-16T13:17:43.296Z,51.54
2023-03-16T13:20:33.784Z,54.70
2023-03-16T13:23:25.958Z,52.26
2023-03-16T13:26:16.400Z,54.13
2023-03-16T13:29:11.917Z,53.82
2023-03-16T13:32:01.847Z,52.19
2023-03-16T13:34:51.932Z,51.08
2023-03-16T13:37:41.837Z,53.67
2023-03-16T13:40:31.568Z,52.86
2023-03-16T13:43:23.530Z,52.10
2023-03-16T13:46:17.090Z,50.55
2023-03-16T13:49:06.021Z,51.13
2023-03-16T13:51:54.637Z,53.60
2023-03-16T13:54:43.226Z,50.79
2023-03-16T13:57:37.408Z,50.21
2023-03-16T14:00:28.052Z,50.13
2023-03-16T14:03:20.054Z,49.91
2023-03-16T14:06:10.419Z,49.98
2023-03-16T14:09:01.408Z,50.17
2023-03-16T14:11:49.880Z,49.49
2023-03-16T14:14:41.248Z,49.19
2023-03-16T14:17:29.787Z,49.35
2023-03-16T14:20:21.012Z,48.18
2023-03-16T14:23:18.659Z,47.19
2023-03-16T14:26:08.033Z,50.18
2023-03-16T14:28:58.850Z,51.95
2023-03-16T14:31:49.631Z,50.23
2023-03-16T14:34:39.608Z,49.29
2023-03-16T14:37:35.709Z,50.77
2023-03-16T14:40:27.237Z,47.83
2023-03-16T14:43:15.814Z,46.91
2023-03-16T14:46:06.218Z,47.64
2023-03-16T14:49:03.669Z,45.77
2023-03-16T14:51:53.890Z,45.67
2023-03-16T14:54:42.560Z,45.83
2023-03-16T14:57:31.348Z,45.83
2023-03-16T15:00:21.604Z,42.48
2023-03-16T15:03:12.831Z,43.44
2023-03-16T15:06:03.157Z,42.85
2023-03-16T15:08:51.564Z,41.80
2023-03-16T15:11:43.222Z,41.29
2023-03-16T15:14:48.939Z,41.61
2023-03-16T15:17:37.569Z,40.93
2023-03-16T15:20:31.750Z,40.06
2023-03-16T15:23:21.450Z,40.88
2023-03-16T15:26:10.204Z,39.77
2023-03-16T15:28:58.828Z,38.68
2023-03-16T15:31:47.304Z,41.03
2023-03-16T15:34:35.790Z,39.62
2023-03-16T15:37:27.682Z,41.33
2023-03-16T15:40:23.006Z,40.36
2023-03-16T15:43:13.174Z,40.60
2023-03-16T15:46:01.598Z,41.61
2023-03-16T15:48:50.322Z,40.94
2023-03-16T15:51:38.787Z,39.61
2023-03-16T15:54:27.165Z,40.15
2023-03-16T15:57:16.851Z,40.89
2023-03-16T16:00:07.247Z,41.77
2023-03-16T16:02:57.756Z,42.56
2023-03-16T16:05:46.197Z,43.07
2023-03-16T16:08:34.640Z,43.88
2023-03-16T16:11:25.888Z,43.61
2023-03-16T16:14:17.323Z,45.22
2023-03-16T16:17:06.726Z,45.44
2023-03-16T16:19:55.292Z,45.96
2023-03-16T16:22:43.983Z,46.59
2023-03-16T16:25:37.649Z,46.68
2023-03-16T16:28:27.671Z,48.87
2023-03-16T16:31:17.492Z,48.06
2023-03-16T16:34:06.702Z,48.49
2023-03-16T16:36:55.602Z,48.15
2023-03-16T16:39:44.215Z,48.30
2023-03-16T16:42:32.582Z,48.88
2023-03-16T16:45:22.223Z,49.27
2023-03-16T16:48:26.659Z,50.33
2023-03-16T16:51:18.749Z,50.40
2023-03-16T16:54:15.838Z,50.77
2023-03-16T16:57:05.114Z,49.54
2023-03-16T16:59:53.477Z,50.29
2023-03-16T17:02:44.988Z,51.07
2023-03-16T17:05:34.673Z,51.37
2023-03-16T17:08:23.752Z,51.00
2023-03-16T17:11:17.702Z,52.21
2023-03-16T17:14:07.516Z,51.72
2023-03-16T17:16:56.015Z,52.40
2023-03-16T17:19:47.108Z,52.55
2023-03-16T17:22:36.793Z,52.24
2023-03-16T17:25:25.963Z,52.74
2023-03-16T17:28:16.763Z,52.87
2023-03-16T17:31:05.638Z,53.08
2023-03-16T17:33:55.445Z,53.22
2023-03-16T17:36:43.988Z,53.54
2023-03-16T17:39:34.825Z,53.53
2023-03-16T17:42:23.601Z,54.04
2023-03-16T17:45:18.865Z,53.59
2023-03-16T17:48:13.809Z,53.97
2023-03-16T17:51:02.182Z,54.75
2023-03-16T17:53:50.917Z,54.93
2023-03-16T17:56:41.667Z,54.26
2023-03-16T17:59:30.066Z,55.45
2023-03-16T18:02:41.157Z,55.44
2023-03-16T18:05:31.126Z,55.77
2023-03-16T18:08:25.815Z,56.36
2023-03-16T18:11:17.230Z,55.71
2023-03-16T18:14:08.793Z,56.69
2023-03-16T18:16:57.184Z,56.70
2023-03-16T18:19:46.997Z,56.72
2023-03-16T18:22:35.364Z,57.07
2023-03-16T18:25:36.102Z,57.86
2023-03-16T18:28:24.505Z,58.60
2023-03-16T18:31:21.385Z,58.07
2023-03-16T18:34:19.692Z,57.99
2023-03-16T18:37:10.782Z,58.61
2023-03-16T18:39:59.159Z,58.90
2023-03-16T18:42:47.833Z,58.93
2023-03-16T18:45:36.523Z,59.25
2023-03-16T18:48:29.314Z,59.44
2023-03-16T18:51:17.850Z,59.50
2023-03-16T18:54:14.449Z,59.63
2023-03-16T18:57:04.376Z,59.80
2023-03-16T18:59:53.140Z,60.34
2023-03-16T19:02:43.265Z,60.42
2023-03-16T19:05:36.010Z,60.83
2023-03-16T19:08:25.735Z,61.02
2023-03-16T19:11:14.072Z,61.28
2023-03-16T19:14:02.446Z,61.41
2023-03-16T19:16:51.645Z,61.07
2023-03-16T19:19:39.967Z,61.11
2023-03-16T19:22:29.713Z,61.70
2023-03-16T19:25:20.227Z,61.26
2023-03-16T19:28:13.903Z,61.65
2023-03-16T19:31:02.904Z,61.69
2023-03-16T19:33:52.020Z,61.53
2023-03-16T19:36:40.508Z,61.14
2023-03-16T19:39:30.291Z,61.40
2023-03-16T19:42:22.400Z,61.80
2023-03-16T19:45:18.417Z,61.23
2023-03-16T19:48:12.753Z,61.71
2023-03-16T19:51:01.449Z,62.47
2023-03-16T19:53:49.881Z,61.51
2023-03-16T19:56:39.594Z,61.81
2023-03-16T19:59:31.393Z,61.89
2023-03-16T20:02:26.550Z,62.05
2023-03-16T20:05:19.672Z,62.35
2023-03-16T20:08:19.491Z,61.29
2023-03-16T20:11:09.065Z,61.78
2023-03-16T20:13:59.304Z,61.09
2023-03-16T20:16:48.195Z,62.00
2023-03-16T20:19:36.640Z,61.54
2023-03-16T20:22:27.274Z,61.77
2023-03-16T20:25:16.252Z,61.57
2023-03-16T20:28:05.210Z,61.42
2023-03-16T20:30:55.122Z,61.84
2023-03-16T20:33:43.538Z,62.04
2023-03-16T20:36:31.968Z,62.63
2023-03-16T20:39:20.433Z,62.39
2023-03-16T20:42:14.885Z,61.99
2023-03-16T20:45:03.491Z,61.91
2023-03-16T20:47:53.879Z,61.99
2023-03-16T20:50:42.378Z,62.10
2023-03-16T20:53:30.726Z,61.38
2023-03-16T20:56:21.257Z,61.97
2023-03-16T20:59:12.410Z,61.73
2023-03-16T21:02:01.716Z,62.10
2023-03-16T21:04:51.465Z,61.80
2023-03-16T21:07:39.864Z,61.85
2023-03-16T21:10:28.613Z,61.79
2023-03-16T21:13:20.396Z,61.79
2023-03-16T21:16:11.452Z,60.59
2023-03-16T21:18:59.927Z,60.94
2023-03-16T21:21:49.852Z,61.23
2023-03-16T21:24:38.173Z,60.54
2023-03-16T21:27:28.620Z,61.13
2023-03-16T21:30:26.183Z,61.44
2023-03-16T21:33:20.241Z,61.35
2023-03-16T21:36:14.651Z,60.26
2023-03-16T21:39:19.406Z,60.31
2023-03-16T21:42:07.863Z,61.20
2023-03-16T21:44:56.292Z,60.92
2023-03-16T21:47:45.324Z,61.25
2023-03-16T21:50:35.044Z,61.93
2023-03-16T21:53:25.674Z,61.06
2023-03-16T21:56:17.794Z,61.28
2023-03-16T21:59:06.672Z,61.53
2023-03-16T22:02:01.997Z,61.22
2023-03-16T22:04:51.895Z,61.88
2023-03-16T22:07:40.487Z,61.01
2023-03-16T22:10:29.702Z,61.27
2023-03-16T22:13:20.398Z,61.35
2023-03-16T22:16:13.919Z,61.37
2023-03-16T22:19:02.298Z,61.41
2023-03-16T22:21:51.003Z,60.53
2023-03-16T22:24:39.421Z,60.59
2023-03-16T22:27:30.109Z,61.30
2023-03-16T22:30:22.749Z,61.26
2023-03-16T22:33:15.139Z,62.06
2023-03-16T22:36:08.184Z,61.39
2023-03-16T22:38:59.452Z,60.98
2023-03-16T22:41:47.874Z,61.15
2023-03-16T22:44:36.228Z,60.96
2023-03-16T22:47:28.736Z,61.22
2023-03-16T22:50:18.243Z,60.93
2023-03-16T22:53:09.383Z,60.91
2023-03-16T22:55:58.201Z,61.85
2023-03-16T22:58:49.957Z,62.15
2023-03-16T23:01:43.556Z,61.18
2023-03-16T23:04:33.801Z,61.57
2023-03-16T23:07:22.249Z,60.79
2023-03-16T23:10:17.174Z,61.48
2023-03-16T23:13:12.480Z,61.73
2023-03-16T23:16:01.319Z,60.75
2023-03-16T23:18:50.072Z,61.81
2023-03-16T23:21:40.079Z,60.69
2023-03-16T23:24:28.533Z,61.16
2023-03-16T23:27:19.085Z,60.80
2023-03-16T23:30:16.763Z,61.21
2023-03-16T23:33:05.360Z,61.15
2023-03-16T23:35:53.801Z,61.23
2023-03-16T23:38:43.960Z,61.50
2023-03-16T23:41:32.738Z,61.63
2023-03-16T23:44:23.538Z,61.44
2023-03-16T23:47:12.233Z,61.46
2023-03-16T23:50:00.679Z,61.61
2023-03-16T23:52:49.017Z,61.07
2023-03-16T23:55:39.003Z,61.20
2023-03-16T23:58:27.498Z,61.04
